sensor_id;sensor_type;location;lat;lon;timestamp;P1;durP1;ratioP1;P2;durP2;ratioP2
8213;SDS011;4148;47.974;7.824;2023-01-31T00:01:35;8.73;;;6.33;;
8213;SDS011;4148;47.974;7.824;2023-01-31T00:04:04;10.97;;;6.70;;
8213;SDS011;4148;47.974;7.824;2023-01-31T00:06:35;7.60;;;5.50;;
8213;SDS011;4148;47.974;7.824;2023-01-31T00:09:05;8.00;;;5.70;;
8213;SDS011;4148;47.974;7.824;2023-01-31T00:11:35;7.10;;;5.23;;
8213;SDS011;4148;47.974;7.824;2023-01-31T00:14:04;9.50;;;6.03;;
8213;SDS011;4148;47.974;7.824;2023-01-31T00:16:32;9.17;;;5.43;;
8213;SDS011;4148;47.974;7.824;2023-01-31T00:19:01;8.30;;;5.77;;
8213;SDS011;4148;47.974;7.824;2023-01-31T00:21:30;8.77;;;5.60;;
8213;SDS011;4148;47.974;7.824;2023-01-31T00:23:58;8.30;;;5.67;;
8213;SDS011;4148;47.974;7.824;2023-01-31T00:26:28;8.00;;;4.83;;
8213;SDS011;4148;47.974;7.824;2023-01-31T00:28:58;6.83;;;4.63;;
8213;SDS011;4148;47.974;7.824;2023-01-31T00:31:28;5.47;;;4.63;;
8213;SDS011;4148;47.974;7.824;2023-01-31T00:33:58;7.33;;;4.77;;
8213;SDS011;4148;47.974;7.824;2023-01-31T00:36:27;7.53;;;5.00;;
8213;SDS011;4148;47.974;7.824;2023-01-31T00:38:56;7.00;;;5.40;;
8213;SDS011;4148;47.974;7.824;2023-01-31T00:41:25;7.67;;;5.20;;
8213;SDS011;4148;47.974;7.824;2023-01-31T00:43:56;7.97;;;5.30;;
8213;SDS011;4148;47.974;7.824;2023-01-31T00:46:24;8.63;;;5.63;;
8213;SDS011;4148;47.974;7.824;2023-01-31T00:48:52;7.13;;;4.87;;
8213;SDS011;4148;47.974;7.824;2023-01-31T00:51:22;7.20;;;5.20;;
8213;SDS011;4148;47.974;7.824;2023-01-31T00:53:52;6.90;;;5.17;;
8213;SDS011;4148;47.974;7.824;2023-01-31T00:56:21;5.87;;;4.30;;
8213;SDS011;4148;47.974;7.824;2023-01-31T00:58:52;6.70;;;4.90;;
8213;SDS011;4148;47.974;7.824;2023-01-31T01:01:21;7.83;;;5.07;;
8213;SDS011;4148;47.974;7.824;2023-01-31T01:03:51;7.47;;;5.20;;
8213;SDS011;4148;47.974;7.824;2023-01-31T01:06:20;9.33;;;5.37;;
8213;SDS011;4148;47.974;7.824;2023-01-31T01:08:48;9.63;;;6.20;;
8213;SDS011;4148;47.974;7.824;2023-01-31T01:11:19;8.17;;;4.80;;
8213;SDS011;4148;47.974;7.824;2023-01-31T01:13:49;5.93;;;4.10;;
8213;SDS011;4148;47.974;7.824;2023-01-31T01:16:19;7.27;;;4.53;;
8213;SDS011;4148;47.974;7.824;2023-01-31T01:18:48;5.60;;;4.40;;
8213;SDS011;4148;47.974;7.824;2023-01-31T01:21:17;6.47;;;4.77;;
8213;SDS011;4148;47.974;7.824;2023-01-31T01:23:47;7.20;;;4.63;;
8213;SDS011;4148;47.974;7.824;2023-01-31T01:26:16;6.50;;;4.33;;
8213;SDS011;4148;47.974;7.824;2023-01-31T01:28:45;13.63;;;4.77;;
8213;SDS011;4148;47.974;7.824;2023-01-31T01:31:14;5.90;;;3.83;;
8213;SDS011;4148;47.974;7.824;2023-01-31T01:33:44;5.50;;;4.00;;
8213;SDS011;4148;47.974;7.824;2023-01-31T01:36:14;7.80;;;4.10;;
8213;SDS011;4148;47.974;7.824;2023-01-31T01:38:47;6.10;;;3.70;;
8213;SDS011;4148;47.974;7.824;2023-01-31T01:41:15;5.60;;;4.00;;
8213;SDS011;4148;47.974;7.824;2023-01-31T01:43:45;6.40;;;3.90;;
8213;SDS011;4148;47.974;7.824;2023-01-31T01:46:15;5.10;;;3.93;;
8213;SDS011;4148;47.974;7.824;2023-01-31T01:48:48;5.50;;;3.67;;
8213;SDS011;4148;47.974;7.824;2023-01-31T01:51:19;5.53;;;3.17;;
8213;SDS011;4148;47.974;7.824;2023-01-31T01:53:48;6.83;;;3.80;;
8213;SDS011;4148;47.974;7.824;2023-01-31T01:56:22;5.97;;;3.80;;
8213;SDS011;4148;47.974;7.824;2023-01-31T01:58:55;4.73;;;4.00;;
8213;SDS011;4148;47.974;7.824;2023-01-31T02:01:25;4.63;;;3.17;;
8213;SDS011;4148;47.974;7.824;2023-01-31T02:03:59;6.27;;;3.60;;
8213;SDS011;4148;47.974;7.824;2023-01-31T02:06:28;4.90;;;3.10;;
8213;SDS011;4148;47.974;7.824;2023-01-31T02:08:56;3.80;;;2.73;;
8213;SDS011;4148;47.974;7.824;2023-01-31T02:11:26;3.30;;;2.63;;
8213;SDS011;4148;47.974;7.824;2023-01-31T02:13:57;5.97;;;3.17;;
8213;SDS011;4148;47.974;7.824;2023-01-31T02:16:28;5.97;;;3.60;;
8213;SDS011;4148;47.974;7.824;2023-01-31T02:18:56;5.43;;;3.03;;
8213;SDS011;4148;47.974;7.824;2023-01-31T02:21:38;4.67;;;3.37;;
8213;SDS011;4148;47.974;7.824;2023-01-31T02:27:52;4.70;;;2.47;;
8213;SDS011;4148;47.974;7.824;2023-01-31T02:30:51;4.17;;;3.10;;
8213;SDS011;4148;47.974;7.824;2023-01-31T02:33:52;5.30;;;2.60;;
8213;SDS011;4148;47.974;7.824;2023-01-31T02:36:29;4.80;;;3.17;;
8213;SDS011;4148;47.974;7.824;2023-01-31T02:39:10;2.73;;;2.27;;
8213;SDS011;4148;47.974;7.824;2023-01-31T02:41:48;5.50;;;3.10;;
8213;SDS011;4148;47.974;7.824;2023-01-31T02:44:25;6.20;;;3.93;;
8213;SDS011;4148;47.974;7.824;2023-01-31T02:47:16;6.50;;;3.73;;
8213;SDS011;4148;47.974;7.824;2023-01-31T02:49:57;6.57;;;3.67;;
8213;SDS011;4148;47.974;7.824;2023-01-31T02:52:30;5.73;;;3.13;;
8213;SDS011;4148;47.974;7.824;2023-01-31T02:55:05;6.97;;;3.20;;
8213;SDS011;4148;47.974;7.824;2023-01-31T02:57:56;4.23;;;2.73;;
8213;SDS011;4148;47.974;7.824;2023-01-31T03:00:26;5.20;;;3.10;;
8213;SDS011;4148;47.974;7.824;2023-01-31T03:02:55;5.47;;;3.27;;
8213;SDS011;4148;47.974;7.824;2023-01-31T03:05:24;5.63;;;3.00;;
8213;SDS011;4148;47.974;7.824;2023-01-31T03:07:53;6.27;;;2.83;;
8213;SDS011;4148;47.974;7.824;2023-01-31T03:10:37;3.47;;;2.57;;
8213;SDS011;4148;47.974;7.824;2023-01-31T03:13:21;4.50;;;2.90;;
8213;SDS011;4148;47.974;7.824;2023-01-31T03:16:01;3.50;;;2.40;;
8213;SDS011;4148;47.974;7.824;2023-01-31T03:18:56;4.33;;;2.77;;
8213;SDS011;4148;47.974;7.824;2023-01-31T03:21:31;6.50;;;2.90;;
8213;SDS011;4148;47.974;7.824;2023-01-31T03:24:02;5.20;;;2.80;;
8213;SDS011;4148;47.974;7.824;2023-01-31T03:26:32;4.83;;;2.50;;
8213;SDS011;4148;47.974;7.824;2023-01-31T03:29:02;5.80;;;2.70;;
8213;SDS011;4148;47.974;7.824;2023-01-31T03:31:34;5.53;;;3.40;;
8213;SDS011;4148;47.974;7.824;2023-01-31T03:34:06;3.63;;;2.67;;
8213;SDS011;4148;47.974;7.824;2023-01-31T03:36:38;3.63;;;2.60;;
8213;SDS011;4148;47.974;7.824;2023-01-31T03:39:10;4.37;;;2.80;;
8213;SDS011;4148;47.974;7.824;2023-01-31T03:41:46;3.70;;;2.90;;
8213;SDS011;4148;47.974;7.824;2023-01-31T03:44:18;3.57;;;2.20;;
8213;SDS011;4148;47.974;7.824;2023-01-31T03:46:50;4.17;;;2.80;;
8213;SDS011;4148;47.974;7.824;2023-01-31T03:49:24;3.30;;;2.67;;
8213;SDS011;4148;47.974;7.824;2023-01-31T03:51:56;4.43;;;2.87;;
8213;SDS011;4148;47.974;7.824;2023-01-31T03:54:27;3.70;;;2.80;;
8213;SDS011;4148;47.974;7.824;2023-01-31T03:56:59;3.73;;;3.00;;
8213;SDS011;4148;47.974;7.824;2023-01-31T03:59:32;5.20;;;2.73;;
8213;SDS011;4148;47.974;7.824;2023-01-31T04:02:07;4.70;;;2.73;;
8213;SDS011;4148;47.974;7.824;2023-01-31T04:04:38;4.83;;;2.60;;
8213;SDS011;4148;47.974;7.824;2023-01-31T04:07:10;5.03;;;2.77;;
8213;SDS011;4148;47.974;7.824;2023-01-31T04:09:38;3.33;;;2.43;;
8213;SDS011;4148;47.974;7.824;2023-01-31T04:12:06;3.67;;;2.47;;
8213;SDS011;4148;47.974;7.824;2023-01-31T04:14:37;5.10;;;3.10;;
8213;SDS011;4148;47.974;7.824;2023-01-31T04:17:05;4.50;;;2.80;;
8213;SDS011;4148;47.974;7.824;2023-01-31T04:19:33;4.20;;;2.70;;
8213;SDS011;4148;47.974;7.824;2023-01-31T04:22:01;5.87;;;2.80;;
8213;SDS011;4148;47.974;7.824;2023-01-31T04:24:31;3.60;;;2.33;;
8213;SDS011;4148;47.974;7.824;2023-01-31T04:26:59;4.23;;;2.80;;
8213;SDS011;4148;47.974;7.824;2023-01-31T04:29:27;4.17;;;2.73;;
8213;SDS011;4148;47.974;7.824;2023-01-31T04:31:54;4.40;;;3.10;;
8213;SDS011;4148;47.974;7.824;2023-01-31T04:34:23;6.93;;;3.00;;
8213;SDS011;4148;47.974;7.824;2023-01-31T04:36:50;6.20;;;2.60;;
8213;SDS011;4148;47.974;7.824;2023-01-31T04:39:18;4.30;;;2.33;;
8213;SDS011;4148;47.974;7.824;2023-01-31T04:41:47;3.03;;;2.50;;
8213;SDS011;4148;47.974;7.824;2023-01-31T04:44:15;5.50;;;2.23;;
8213;SDS011;4148;47.974;7.824;2023-01-31T04:46:43;3.00;;;2.23;;
8213;SDS011;4148;47.974;7.824;2023-01-31T04:49:12;6.77;;;2.50;;
8213;SDS011;4148;47.974;7.824;2023-01-31T04:51:40;4.97;;;2.57;;
8213;SDS011;4148;47.974;7.824;2023-01-31T04:54:08;4.03;;;2.40;;
8213;SDS011;4148;47.974;7.824;2023-01-31T04:56:36;4.27;;;2.70;;
8213;SDS011;4148;47.974;7.824;2023-01-31T04:59:05;7.40;;;2.97;;
8213;SDS011;4148;47.974;7.824;2023-01-31T05:01:34;4.80;;;2.40;;
8213;SDS011;4148;47.974;7.824;2023-01-31T05:04:01;4.53;;;2.77;;
8213;SDS011;4148;47.974;7.824;2023-01-31T05:06:29;4.57;;;2.80;;
8213;SDS011;4148;47.974;7.824;2023-01-31T05:08:58;5.43;;;3.10;;
8213;SDS011;4148;47.974;7.824;2023-01-31T05:11:26;4.97;;;2.97;;
8213;SDS011;4148;47.974;7.824;2023-01-31T05:13:54;5.13;;;3.00;;
8213;SDS011;4148;47.974;7.824;2023-01-31T05:16:24;3.70;;;2.80;;
8213;SDS011;4148;47.974;7.824;2023-01-31T05:18:51;6.20;;;3.10;;
8213;SDS011;4148;47.974;7.824;2023-01-31T05:21:19;4.27;;;3.70;;
8213;SDS011;4148;47.974;7.824;2023-01-31T05:23:47;5.47;;;3.00;;
8213;SDS011;4148;47.974;7.824;2023-01-31T05:26:15;5.10;;;3.63;;
8213;SDS011;4148;47.974;7.824;2023-01-31T05:28:43;6.00;;;3.10;;
8213;SDS011;4148;47.974;7.824;2023-01-31T05:31:11;6.10;;;3.60;;
8213;SDS011;4148;47.974;7.824;2023-01-31T05:33:40;4.97;;;3.13;;
8213;SDS011;4148;47.974;7.824;2023-01-31T05:36:08;6.90;;;3.00;;
8213;SDS011;4148;47.974;7.824;2023-01-31T05:38:36;5.23;;;2.43;;
8213;SDS011;4148;47.974;7.824;2023-01-31T05:41:04;6.10;;;3.10;;
8213;SDS011;4148;47.974;7.824;2023-01-31T05:43:32;4.87;;;2.97;;
8213;SDS011;4148;47.974;7.824;2023-01-31T05:46:02;6.80;;;3.00;;
8213;SDS011;4148;47.974;7.824;2023-01-31T05:48:30;9.43;;;4.50;;
8213;SDS011;4148;47.974;7.824;2023-01-31T05:51:00;6.30;;;3.80;;
8213;SDS011;4148;47.974;7.824;2023-01-31T05:53:28;18.83;;;5.53;;
8213;SDS011;4148;47.974;7.824;2023-01-31T05:55:56;23.40;;;8.03;;
8213;SDS011;4148;47.974;7.824;2023-01-31T05:58:24;28.93;;;8.70;;
8213;SDS011;4148;47.974;7.824;2023-01-31T06:00:53;24.83;;;8.87;;
8213;SDS011;4148;47.974;7.824;2023-01-31T06:03:21;29.77;;;10.27;;
8213;SDS011;4148;47.974;7.824;2023-01-31T06:05:49;30.87;;;11.13;;
8213;SDS011;4148;47.974;7.824;2023-01-31T06:08:18;40.90;;;11.40;;
8213;SDS011;4148;47.974;7.824;2023-01-31T06:10:46;38.87;;;13.03;;
8213;SDS011;4148;47.974;7.824;2023-01-31T06:13:14;28.67;;;11.67;;
8213;SDS011;4148;47.974;7.824;2023-01-31T06:15:42;39.70;;;14.50;;
8213;SDS011;4148;47.974;7.824;2023-01-31T06:18:10;48.80;;;15.10;;
8213;SDS011;4148;47.974;7.824;2023-01-31T06:20:38;42.30;;;14.37;;
8213;SDS011;4148;47.974;7.824;2023-01-31T06:23:06;40.60;;;14.10;;
8213;SDS011;4148;47.974;7.824;2023-01-31T06:25:35;38.67;;;13.33;;
8213;SDS011;4148;47.974;7.824;2023-01-31T06:28:03;35.60;;;13.97;;
8213;SDS011;4148;47.974;7.824;2023-01-31T06:30:31;38.60;;;13.03;;
8213;SDS011;4148;47.974;7.824;2023-01-31T06:33:00;33.87;;;12.33;;
8213;SDS011;4148;47.974;7.824;2023-01-31T06:35:28;33.70;;;12.47;;
8213;SDS011;4148;47.974;7.824;2023-01-31T06:37:56;26.63;;;12.10;;
8213;SDS011;4148;47.974;7.824;2023-01-31T06:40:24;29.53;;;10.60;;
8213;SDS011;4148;47.974;7.824;2023-01-31T06:42:54;24.23;;;11.10;;
8213;SDS011;4148;47.974;7.824;2023-01-31T06:45:21;21.57;;;10.80;;
8213;SDS011;4148;47.974;7.824;2023-01-31T06:47:49;21.80;;;8.97;;
8213;SDS011;4148;47.974;7.824;2023-01-31T06:50:17;18.77;;;9.60;;
8213;SDS011;4148;47.974;7.824;2023-01-31T06:52:45;17.33;;;8.10;;
8213;SDS011;4148;47.974;7.824;2023-01-31T06:55:13;15.20;;;7.33;;
8213;SDS011;4148;47.974;7.824;2023-01-31T06:57:47;9.30;;;5.87;;
8213;SDS011;4148;47.974;7.824;2023-01-31T07:00:17;20.53;;;8.10;;
8213;SDS011;4148;47.974;7.824;2023-01-31T07:02:47;12.53;;;6.50;;
8213;SDS011;4148;47.974;7.824;2023-01-31T07:05:15;13.10;;;7.53;;
8213;SDS011;4148;47.974;7.824;2023-01-31T07:07:43;10.30;;;6.60;;
8213;SDS011;4148;47.974;7.824;2023-01-31T07:10:11;13.47;;;7.13;;
8213;SDS011;4148;47.974;7.824;2023-01-31T07:12:39;16.93;;;7.67;;
8213;SDS011;4148;47.974;7.824;2023-01-31T07:15:08;13.93;;;7.87;;
8213;SDS011;4148;47.974;7.824;2023-01-31T07:17:37;12.40;;;6.77;;
8213;SDS011;4148;47.974;7.824;2023-01-31T07:20:06;16.77;;;8.40;;
8213;SDS011;4148;47.974;7.824;2023-01-31T07:22:34;11.40;;;7.20;;
8213;SDS011;4148;47.974;7.824;2023-01-31T07:25:03;17.70;;;9.43;;
8213;SDS011;4148;47.974;7.824;2023-01-31T07:27:31;19.27;;;8.60;;
8213;SDS011;4148;47.974;7.824;2023-01-31T07:29:59;16.83;;;9.67;;
8213;SDS011;4148;47.974;7.824;2023-01-31T07:32:29;13.30;;;8.40;;
8213;SDS011;4148;47.974;7.824;2023-01-31T07:34:59;14.80;;;8.90;;
8213;SDS011;4148;47.974;7.824;2023-01-31T07:37:26;14.90;;;9.43;;
8213;SDS011;4148;47.974;7.824;2023-01-31T07:39:55;21.13;;;9.40;;
8213;SDS011;4148;47.974;7.824;2023-01-31T07:42:22;23.47;;;10.40;;
8213;SDS011;4148;47.974;7.824;2023-01-31T07:44:50;17.47;;;9.20;;
8213;SDS011;4148;47.974;7.824;2023-01-31T07:47:18;18.00;;;9.13;;
8213;SDS011;4148;47.974;7.824;2023-01-31T07:49:46;16.17;;;9.63;;
8213;SDS011;4148;47.974;7.824;2023-01-31T07:52:17;21.07;;;9.90;;
8213;SDS011;4148;47.974;7.824;2023-01-31T07:54:44;16.90;;;10.27;;
8213;SDS011;4148;47.974;7.824;2023-01-31T07:57:13;19.93;;;10.70;;
8213;SDS011;4148;47.974;7.824;2023-01-31T07:59:42;20.77;;;10.10;;
8213;SDS011;4148;47.974;7.824;2023-01-31T08:02:10;20.33;;;8.90;;
8213;SDS011;4148;47.974;7.824;2023-01-31T08:04:57;18.37;;;9.10;;
8213;SDS011;4148;47.974;7.824;2023-01-31T08:07:26;14.50;;;10.07;;
8213;SDS011;4148;47.974;7.824;2023-01-31T08:09:55;21.97;;;9.17;;
8213;SDS011;4148;47.974;7.824;2023-01-31T08:12:23;15.70;;;9.37;;
8213;SDS011;4148;47.974;7.824;2023-01-31T08:14:51;16.73;;;9.10;;
8213;SDS011;4148;47.974;7.824;2023-01-31T08:17:19;21.93;;;7.80;;
8213;SDS011;4148;47.974;7.824;2023-01-31T08:19:47;16.40;;;9.13;;
8213;SDS011;4148;47.974;7.824;2023-01-31T08:22:14;18.60;;;8.20;;
8213;SDS011;4148;47.974;7.824;2023-01-31T08:24:44;18.57;;;9.20;;
8213;SDS011;4148;47.974;7.824;2023-01-31T08:27:12;15.40;;;8.30;;
8213;SDS011;4148;47.974;7.824;2023-01-31T08:29:39;16.27;;;8.20;;
8213;SDS011;4148;47.974;7.824;2023-01-31T08:32:07;12.40;;;8.53;;
8213;SDS011;4148;47.974;7.824;2023-01-31T08:34:35;14.23;;;7.23;;
8213;SDS011;4148;47.974;7.824;2023-01-31T08:37:03;12.47;;;8.30;;
8213;SDS011;4148;47.974;7.824;2023-01-31T08:39:31;19.23;;;9.13;;
8213;SDS011;4148;47.974;7.824;2023-01-31T08:42:00;13.40;;;8.17;;
8213;SDS011;4148;47.974;7.824;2023-01-31T08:44:28;16.60;;;8.20;;
8213;SDS011;4148;47.974;7.824;2023-01-31T08:46:55;13.30;;;8.00;;
8213;SDS011;4148;47.974;7.824;2023-01-31T08:49:25;12.63;;;7.70;;
8213;SDS011;4148;47.974;7.824;2023-01-31T08:51:54;10.33;;;7.70;;
8213;SDS011;4148;47.974;7.824;2023-01-31T08:54:22;11.63;;;6.90;;
8213;SDS011;4148;47.974;7.824;2023-01-31T08:56:49;12.00;;;6.83;;
8213;SDS011;4148;47.974;7.824;2023-01-31T08:59:19;12.17;;;6.33;;
8213;SDS011;4148;47.974;7.824;2023-01-31T09:01:46;9.40;;;6.67;;
8213;SDS011;4148;47.974;7.824;2023-01-31T09:04:14;12.17;;;7.07;;
8213;SDS011;4148;47.974;7.824;2023-01-31T09:06:42;12.03;;;7.80;;
8213;SDS011;4148;47.974;7.824;2023-01-31T09:09:10;8.60;;;6.50;;
8213;SDS011;4148;47.974;7.824;2023-01-31T09:11:38;12.20;;;6.67;;
8213;SDS011;4148;47.974;7.824;2023-01-31T09:14:05;13.83;;;7.30;;
8213;SDS011;4148;47.974;7.824;2023-01-31T09:16:35;10.70;;;6.93;;
8213;SDS011;4148;47.974;7.824;2023-01-31T09:19:04;13.73;;;8.33;;
8213;SDS011;4148;47.974;7.824;2023-01-31T09:21:32;16.63;;;8.70;;
8213;SDS011;4148;47.974;7.824;2023-01-31T09:24:00;13.77;;;8.10;;
8213;SDS011;4148;47.974;7.824;2023-01-31T09:26:29;13.90;;;7.80;;
8213;SDS011;4148;47.974;7.824;2023-01-31T09:28:57;13.40;;;7.73;;
8213;SDS011;4148;47.974;7.824;2023-01-31T09:31:26;14.87;;;7.87;;
8213;SDS011;4148;47.974;7.824;2023-01-31T09:33:56;15.33;;;8.73;;
8213;SDS011;4148;47.974;7.824;2023-01-31T09:36:24;15.60;;;8.40;;
8213;SDS011;4148;47.974;7.824;2023-01-31T09:38:53;18.70;;;8.00;;
8213;SDS011;4148;47.974;7.824;2023-01-31T09:41:24;11.63;;;7.33;;
8213;SDS011;4148;47.974;7.824;2023-01-31T09:43:57;14.47;;;7.93;;
8213;SDS011;4148;47.974;7.824;2023-01-31T09:46:29;15.70;;;7.70;;
8213;SDS011;4148;47.974;7.824;2023-01-31T09:49:04;13.40;;;7.47;;
8213;SDS011;4148;47.974;7.824;2023-01-31T09:51:36;12.90;;;6.17;;
8213;SDS011;4148;47.974;7.824;2023-01-31T09:54:06;11.43;;;7.03;;
8213;SDS011;4148;47.974;7.824;2023-01-31T09:56:45;10.93;;;6.87;;
8213;SDS011;4148;47.974;7.824;2023-01-31T09:59:21;11.90;;;6.80;;
8213;SDS011;4148;47.974;7.824;2023-01-31T10:01:53;10.10;;;6.27;;
8213;SDS011;4148;47.974;7.824;2023-01-31T10:04:32;7.93;;;6.37;;
8213;SDS011;4148;47.974;7.824;2023-01-31T10:07:09;11.10;;;7.67;;
8213;SDS011;4148;47.974;7.824;2023-01-31T10:09:43;10.57;;;6.90;;
8213;SDS011;4148;47.974;7.824;2023-01-31T10:12:16;7.80;;;5.80;;
8213;SDS011;4148;47.974;7.824;2023-01-31T10:14:47;7.37;;;5.10;;
8213;SDS011;4148;47.974;7.824;2023-01-31T10:17:19;12.23;;;7.00;;
8213;SDS011;4148;47.974;7.824;2023-01-31T10:19:54;8.60;;;6.10;;
8213;SDS011;4148;47.974;7.824;2023-01-31T10:22:27;9.70;;;5.83;;
8213;SDS011;4148;47.974;7.824;2023-01-31T10:25:01;9.57;;;5.70;;
8213;SDS011;4148;47.974;7.824;2023-01-31T10:27:39;10.47;;;5.00;;
8213;SDS011;4148;47.974;7.824;2023-01-31T10:30:13;7.33;;;4.23;;
8213;SDS011;4148;47.974;7.824;2023-01-31T10:32:44;4.70;;;3.30;;
8213;SDS011;4148;47.974;7.824;2023-01-31T10:35:19;5.57;;;3.43;;
8213;SDS011;4148;47.974;7.824;2023-01-31T10:37:51;3.97;;;3.03;;
8213;SDS011;4148;47.974;7.824;2023-01-31T10:40:24;4.63;;;3.50;;
8213;SDS011;4148;47.974;7.824;2023-01-31T10:42:59;6.40;;;3.43;;
8213;SDS011;4148;47.974;7.824;2023-01-31T10:45:37;6.73;;;3.90;;
8213;SDS011;4148;47.974;7.824;2023-01-31T10:48:11;5.27;;;2.93;;
8213;SDS011;4148;47.974;7.824;2023-01-31T10:50:45;6.93;;;3.43;;
8213;SDS011;4148;47.974;7.824;2023-01-31T10:53:33;7.70;;;3.00;;
8213;SDS011;4148;47.974;7.824;2023-01-31T10:56:11;6.33;;;3.13;;
8213;SDS011;4148;47.974;7.824;2023-01-31T10:58:45;11.73;;;3.60;;
8213;SDS011;4148;47.974;7.824;2023-01-31T11:01:14;9.60;;;3.37;;
8213;SDS011;4148;47.974;7.824;2023-01-31T11:03:44;7.10;;;3.20;;
8213;SDS011;4148;47.974;7.824;2023-01-31T11:06:16;5.50;;;3.07;;
8213;SDS011;4148;47.974;7.824;2023-01-31T11:08:45;7.67;;;3.40;;
8213;SDS011;4148;47.974;7.824;2023-01-31T11:11:16;6.93;;;3.77;;
8213;SDS011;4148;47.974;7.824;2023-01-31T11:13:54;9.23;;;3.50;;
8213;SDS011;4148;47.974;7.824;2023-01-31T11:16:23;6.67;;;4.00;;
8213;SDS011;4148;47.974;7.824;2023-01-31T11:18:53;5.67;;;4.20;;
8213;SDS011;4148;47.974;7.824;2023-01-31T11:21:23;7.43;;;3.70;;
8213;SDS011;4148;47.974;7.824;2023-01-31T11:23:54;6.43;;;4.33;;
8213;SDS011;4148;47.974;7.824;2023-01-31T11:26:27;11.43;;;6.30;;
8213;SDS011;4148;47.974;7.824;2023-01-31T11:28:58;11.97;;;5.63;;
8213;SDS011;4148;47.974;7.824;2023-01-31T11:31:28;6.73;;;3.70;;
8213;SDS011;4148;47.974;7.824;2023-01-31T11:34:16;8.00;;;3.97;;
8213;SDS011;4148;47.974;7.824;2023-01-31T11:36:48;7.43;;;4.57;;
8213;SDS011;4148;47.974;7.824;2023-01-31T11:39:20;7.73;;;3.77;;
8213;SDS011;4148;47.974;7.824;2023-01-31T11:41:52;6.37;;;3.93;;
8213;SDS011;4148;47.974;7.824;2023-01-31T11:44:21;5.97;;;3.23;;
8213;SDS011;4148;47.974;7.824;2023-01-31T11:46:50;6.23;;;4.50;;
8213;SDS011;4148;47.974;7.824;2023-01-31T11:49:22;5.63;;;3.97;;
8213;SDS011;4148;47.974;7.824;2023-01-31T11:51:57;10.07;;;4.30;;
8213;SDS011;4148;47.974;7.824;2023-01-31T11:54:28;7.17;;;4.27;;
8213;SDS011;4148;47.974;7.824;2023-01-31T11:56:59;12.00;;;5.27;;
8213;SDS011;4148;47.974;7.824;2023-01-31T11:59:28;11.70;;;6.00;;
8213;SDS011;4148;47.974;7.824;2023-01-31T12:01:57;9.20;;;5.30;;
8213;SDS011;4148;47.974;7.824;2023-01-31T12:04:29;6.57;;;4.83;;
8213;SDS011;4148;47.974;7.824;2023-01-31T12:07:02;8.20;;;5.27;;
8213;SDS011;4148;47.974;7.824;2023-01-31T12:09:41;10.67;;;7.33;;
8213;SDS011;4148;47.974;7.824;2023-01-31T12:12:20;11.20;;;6.33;;
8213;SDS011;4148;47.974;7.824;2023-01-31T12:14:50;8.37;;;5.40;;
8213;SDS011;4148;47.974;7.824;2023-01-31T12:17:21;7.73;;;4.73;;
8213;SDS011;4148;47.974;7.824;2023-01-31T12:19:57;12.30;;;7.03;;
8213;SDS011;4148;47.974;7.824;2023-01-31T12:22:54;11.33;;;6.63;;
8213;SDS011;4148;47.974;7.824;2023-01-31T12:25:33;15.20;;;12.97;;
8213;SDS011;4148;47.974;7.824;2023-01-31T12:28:16;10.10;;;7.10;;
8213;SDS011;4148;47.974;7.824;2023-01-31T12:30:59;12.27;;;9.43;;
8213;SDS011;4148;47.974;7.824;2023-01-31T12:33:49;8.40;;;6.90;;
8213;SDS011;4148;47.974;7.824;2023-01-31T12:36:29;8.00;;;6.00;;
8213;SDS011;4148;47.974;7.824;2023-01-31T12:39:24;9.57;;;7.00;;
8213;SDS011;4148;47.974;7.824;2023-01-31T12:41:59;12.10;;;9.30;;
8213;SDS011;4148;47.974;7.824;2023-01-31T12:44:41;15.77;;;11.30;;
8213;SDS011;4148;47.974;7.824;2023-01-31T12:50:15;7.77;;;5.27;;
8213;SDS011;4148;47.974;7.824;2023-01-31T12:52:52;9.23;;;5.70;;
8213;SDS011;4148;47.974;7.824;2023-01-31T12:55:40;7.60;;;4.67;;
8213;SDS011;4148;47.974;7.824;2023-01-31T12:58:20;10.37;;;6.00;;
8213;SDS011;4148;47.974;7.824;2023-01-31T13:01:02;7.00;;;5.00;;
8213;SDS011;4148;47.974;7.824;2023-01-31T13:03:36;10.80;;;6.37;;
8213;SDS011;4148;47.974;7.824;2023-01-31T13:06:16;7.20;;;5.30;;
8213;SDS011;4148;47.974;7.824;2023-01-31T13:08:50;11.50;;;7.23;;
8213;SDS011;4148;47.974;7.824;2023-01-31T13:11:36;13.40;;;8.80;;
8213;SDS011;4148;47.974;7.824;2023-01-31T13:14:09;9.63;;;5.60;;
8213;SDS011;4148;47.974;7.824;2023-01-31T13:16:42;10.90;;;7.17;;
8213;SDS011;4148;47.974;7.824;2023-01-31T13:19:12;11.17;;;5.50;;
8213;SDS011;4148;47.974;7.824;2023-01-31T13:21:44;7.67;;;5.23;;
8213;SDS011;4148;47.974;7.824;2023-01-31T13:24:15;7.50;;;4.63;;
8213;SDS011;4148;47.974;7.824;2023-01-31T13:26:49;7.93;;;4.30;;
8213;SDS011;4148;47.974;7.824;2023-01-31T13:29:22;9.10;;;4.60;;
8213;SDS011;4148;47.974;7.824;2023-01-31T13:31:56;6.10;;;4.20;;
8213;SDS011;4148;47.974;7.824;2023-01-31T13:34:28;7.30;;;4.37;;
8213;SDS011;4148;47.974;7.824;2023-01-31T13:37:01;6.73;;;4.57;;
8213;SDS011;4148;47.974;7.824;2023-01-31T13:39:34;9.30;;;6.23;;
8213;SDS011;4148;47.974;7.824;2023-01-31T13:42:08;8.77;;;5.70;;
8213;SDS011;4148;47.974;7.824;2023-01-31T13:44:39;9.10;;;4.47;;
8213;SDS011;4148;47.974;7.824;2023-01-31T13:47:11;9.60;;;5.40;;
8213;SDS011;4148;47.974;7.824;2023-01-31T13:49:43;7.93;;;3.80;;
8213;SDS011;4148;47.974;7.824;2023-01-31T13:52:16;6.30;;;3.97;;
8213;SDS011;4148;47.974;7.824;2023-01-31T13:54:50;10.00;;;5.70;;
8213;SDS011;4148;47.974;7.824;2023-01-31T13:57:24;6.47;;;4.47;;
8213;SDS011;4148;47.974;7.824;2023-01-31T13:59:55;8.20;;;4.30;;
8213;SDS011;4148;47.974;7.824;2023-01-31T14:02:30;6.00;;;4.00;;
8213;SDS011;4148;47.974;7.824;2023-01-31T14:05:03;17.40;;;3.93;;
8213;SDS011;4148;47.974;7.824;2023-01-31T14:07:33;7.57;;;3.77;;
8213;SDS011;4148;47.974;7.824;2023-01-31T14:15:56;6.90;;;3.93;;
8213;SDS011;4148;47.974;7.824;2023-01-31T14:18:40;7.53;;;4.33;;
8213;SDS011;4148;47.974;7.824;2023-01-31T14:24:24;5.50;;;4.00;;
8213;SDS011;4148;47.974;7.824;2023-01-31T14:27:34;8.20;;;4.00;;
8213;SDS011;4148;47.974;7.824;2023-01-31T14:30:09;3.90;;;3.50;;
8213;SDS011;4148;47.974;7.824;2023-01-31T14:32:48;8.43;;;4.57;;
8213;SDS011;4148;47.974;7.824;2023-01-31T14:35:39;6.87;;;4.37;;
8213;SDS011;4148;47.974;7.824;2023-01-31T14:38:18;5.97;;;4.07;;
8213;SDS011;4148;47.974;7.824;2023-01-31T14:40:58;6.00;;;4.00;;
8213;SDS011;4148;47.974;7.824;2023-01-31T14:43:38;7.07;;;4.07;;
8213;SDS011;4148;47.974;7.824;2023-01-31T14:46:25;9.50;;;3.83;;
8213;SDS011;4148;47.974;7.824;2023-01-31T14:49:11;7.37;;;4.40;;
8213;SDS011;4148;47.974;7.824;2023-01-31T14:52:05;6.60;;;4.20;;
8213;SDS011;4148;47.974;7.824;2023-01-31T14:54:47;5.50;;;4.20;;
8213;SDS011;4148;47.974;7.824;2023-01-31T14:57:29;6.87;;;4.07;;
8213;SDS011;4148;47.974;7.824;2023-01-31T15:00:02;8.20;;;4.10;;
8213;SDS011;4148;47.974;7.824;2023-01-31T15:05:21;10.73;;;4.37;;
8213;SDS011;4148;47.974;7.824;2023-01-31T15:08:06;8.03;;;4.77;;
8213;SDS011;4148;47.974;7.824;2023-01-31T15:10:56;7.97;;;4.97;;
8213;SDS011;4148;47.974;7.824;2023-01-31T15:13:31;14.30;;;5.30;;
8213;SDS011;4148;47.974;7.824;2023-01-31T15:16:06;11.30;;;4.77;;
8213;SDS011;4148;47.974;7.824;2023-01-31T15:18:36;8.53;;;4.87;;
8213;SDS011;4148;47.974;7.824;2023-01-31T15:21:04;10.23;;;4.20;;
8213;SDS011;4148;47.974;7.824;2023-01-31T15:23:36;8.13;;;4.60;;
8213;SDS011;4148;47.974;7.824;2023-01-31T15:26:08;8.23;;;4.77;;
8213;SDS011;4148;47.974;7.824;2023-01-31T15:28:36;7.47;;;4.90;;
8213;SDS011;4148;47.974;7.824;2023-01-31T15:31:14;5.10;;;3.80;;
8213;SDS011;4148;47.974;7.824;2023-01-31T15:33:47;8.10;;;4.67;;
8213;SDS011;4148;47.974;7.824;2023-01-31T15:36:19;9.60;;;4.30;;
8213;SDS011;4148;47.974;7.824;2023-01-31T15:38:53;8.43;;;4.43;;
8213;SDS011;4148;47.974;7.824;2023-01-31T15:41:23;7.13;;;5.10;;
8213;SDS011;4148;47.974;7.824;2023-01-31T15:43:52;8.00;;;5.17;;
8213;SDS011;4148;47.974;7.824;2023-01-31T15:46:26;7.80;;;4.80;;
8213;SDS011;4148;47.974;7.824;2023-01-31T15:48:56;13.80;;;5.83;;
8213;SDS011;4148;47.974;7.824;2023-01-31T15:51:24;6.27;;;4.07;;
8213;SDS011;4148;47.974;7.824;2023-01-31T15:54:01;11.97;;;5.07;;
8213;SDS011;4148;47.974;7.824;2023-01-31T15:56:31;9.00;;;5.90;;
8213;SDS011;4148;47.974;7.824;2023-01-31T15:59:01;8.03;;;4.40;;